createdAt,value
2022-10-12T00:01:34.595Z,14.90
2022-10-12T00:04:01.654Z,14.80
2022-10-12T00:06:29.071Z,14.90
2022-10-12T00:08:56.077Z,14.90
2022-10-12T00:11:25.793Z,14.80
2022-10-12T00:13:53.994Z,14.90
2022-10-12T00:16:22.787Z,14.90
2022-10-12T00:18:54.021Z,14.90
2022-10-12T00:21:21.442Z,14.90
2022-10-12T00:23:48.415Z,15.00
2022-10-12T00:26:23.580Z,15.00
2022-10-12T00:28:57.239Z,14.90
2022-10-12T00:31:24.502Z,15.00
2022-10-12T00:33:51.605Z,14.80
2022-10-12T00:36:28.193Z,14.80
2022-10-12T00:38:56.450Z,14.80
2022-10-12T00:41:27.408Z,14.80
2022-10-12T00:43:58.270Z,14.80
2022-10-12T00:46:39.784Z,14.70
2022-10-12T00:49:23.519Z,14.80
2022-10-12T00:51:58.782Z,14.80
2022-10-12T00:54:33.170Z,14.80
2022-10-12T00:57:02.051Z,14.80
2022-10-12T00:59:39.777Z,14.80
2022-10-12T01:02:06.839Z,14.70
2022-10-12T01:04:33.957Z,14.70
2022-10-12T01:07:01.819Z,14.70
2022-10-12T01:09:29.777Z,14.70
2022-10-12T01:12:00.015Z,14.70
2022-10-12T01:14:27.116Z,14.70
2022-10-12T01:17:30.436Z,14.80
2022-10-12T01:20:15.530Z,14.70
2022-10-12T01:23:12.842Z,14.70
2022-10-12T01:26:01.345Z,14.70
2022-10-12T01:28:49.151Z,14.70
2022-10-12T01:31:37.746Z,14.60
2022-10-12T01:34:18.409Z,14.70
2022-10-12T01:36:49.248Z,14.60
2022-10-12T01:39:25.053Z,14.60
2022-10-12T01:41:57.311Z,14.70
2022-10-12T01:44:26.249Z,14.70
2022-10-12T01:46:55.834Z,14.60
2022-10-12T01:49:30.771Z,14.60
2022-10-12T01:52:21.303Z,14.60
2022-10-12T01:55:06.186Z,14.60
2022-10-12T01:57:54.679Z,14.60
2022-10-12T02:00:21.753Z,14.50
2022-10-12T02:03:14.323Z,14.50
2022-10-12T02:05:47.388Z,14.50
2022-10-12T02:08:28.047Z,14.50
2022-10-12T02:11:10.826Z,14.50
2022-10-12T02:13:47.911Z,14.50
2022-10-12T02:16:20.643Z,14.50
2022-10-12T02:18:52.003Z,14.50
2022-10-12T02:21:27.053Z,14.40
2022-10-12T02:23:57.009Z,14.40
2022-10-12T02:26:24.481Z,14.40
2022-10-12T02:28:52.284Z,14.40
2022-10-12T02:31:33.118Z,14.30
2022-10-12T02:34:28.485Z,14.30
2022-10-12T02:37:01.164Z,14.20
2022-10-12T02:39:38.815Z,14.20
2022-10-12T02:42:14.863Z,14.20
2022-10-12T02:44:43.553Z,14.10
2022-10-12T02:47:12.943Z,14.10
2022-10-12T02:49:42.044Z,14.00
2022-10-12T02:52:09.328Z,14.00
2022-10-12T02:54:37.120Z,14.00
2022-10-12T02:57:04.045Z,13.90
2022-10-12T02:59:31.142Z,13.90
2022-10-12T03:01:58.003Z,13.90
2022-10-12T03:04:24.925Z,13.90
2022-10-12T03:06:51.935Z,13.90
2022-10-12T03:09:18.890Z,13.80
2022-10-12T03:11:45.775Z,13.60
2022-10-12T03:14:15.114Z,13.60
2022-10-12T03:16:42.628Z,13.60
2022-10-12T03:19:09.755Z,13.50
2022-10-12T03:21:36.736Z,13.40
2022-10-12T03:24:03.718Z,13.30
2022-10-12T03:26:30.589Z,13.30
2022-10-12T03:28:57.641Z,13.30
2022-10-12T03:31:24.616Z,13.30
2022-10-12T03:33:51.617Z,13.20
2022-10-12T03:36:18.610Z,13.20
2022-10-12T03:38:45.506Z,13.10
2022-10-12T03:41:12.403Z,13.10
2022-10-12T03:43:39.344Z,13.10
2022-10-12T03:46:06.211Z,13.10
2022-10-12T03:48:33.180Z,13.10
2022-10-12T03:51:00.168Z,13.20
2022-10-12T03:53:27.175Z,13.20
2022-10-12T03:55:54.091Z,13.20
2022-10-12T03:58:21.090Z,13.20
2022-10-12T04:00:47.969Z,13.20
2022-10-12T04:03:14.822Z,13.20
2022-10-12T04:05:41.996Z,13.20
2022-10-12T04:08:09.435Z,13.20
2022-10-12T04:10:36.323Z,13.10
2022-10-12T04:13:03.340Z,13.10
2022-10-12T04:15:30.212Z,13.10
2022-10-12T04:17:57.128Z,13.10
2022-10-12T04:20:24.058Z,13.10
2022-10-12T04:22:50.936Z,13.20
2022-10-12T04:25:17.946Z,13.10
2022-10-12T04:27:44.882Z,13.20
2022-10-12T04:30:12.470Z,13.20
2022-10-12T04:32:39.382Z,13.20
2022-10-12T04:35:06.496Z,13.20
2022-10-12T04:37:33.362Z,13.20
2022-10-12T04:40:00.240Z,13.30
2022-10-12T04:42:27.169Z,13.30
2022-10-12T04:44:54.114Z,13.30
2022-10-12T04:47:21.193Z,13.40
2022-10-12T04:49:48.125Z,13.40
2022-10-12T04:52:14.978Z,13.50
2022-10-12T04:54:41.894Z,13.50
2022-10-12T04:57:08.976Z,13.50
2022-10-12T04:59:35.942Z,13.60
2022-10-12T05:02:02.842Z,13.60
2022-10-12T05:04:29.840Z,13.60
2022-10-12T05:06:56.815Z,13.60
2022-10-12T05:09:23.679Z,13.70
2022-10-12T05:11:50.659Z,13.70
2022-10-12T05:14:17.690Z,13.70
2022-10-12T05:16:44.588Z,13.70
2022-10-12T05:19:11.540Z,13.80
2022-10-12T05:21:40.361Z,13.80
2022-10-12T05:24:07.660Z,13.80
2022-10-12T05:26:34.796Z,13.90
2022-10-12T05:29:01.766Z,13.90
2022-10-12T05:31:28.714Z,13.90
2022-10-12T05:33:55.649Z,14.00
2022-10-12T05:36:22.608Z,14.00
2022-10-12T05:38:49.516Z,14.00
2022-10-12T05:41:16.549Z,14.10
2022-10-12T05:43:43.490Z,14.10
2022-10-12T05:46:14.262Z,14.10
2022-10-12T05:48:42.041Z,14.10
2022-10-12T05:51:08.981Z,14.10
2022-10-12T05:53:35.965Z,14.00
2022-10-12T05:56:02.912Z,14.10
2022-10-12T05:58:30.897Z,14.10
2022-10-12T06:01:27.248Z,14.20
2022-10-12T06:03:54.895Z,14.20
2022-10-12T06:06:22.493Z,14.30
2022-10-12T06:08:49.479Z,14.40
2022-10-12T06:11:16.405Z,14.50
2022-10-12T06:13:43.260Z,14.50
2022-10-12T06:16:10.163Z,14.60
2022-10-12T06:18:37.076Z,14.70
2022-10-12T06:23:50.937Z,14.90
2022-10-12T06:26:17.830Z,14.90
2022-10-12T06:28:44.955Z,15.00
2022-10-12T06:31:11.946Z,15.10
2022-10-12T06:33:38.864Z,15.00
2022-10-12T06:36:05.932Z,15.10
2022-10-12T06:38:32.926Z,15.30
2022-10-12T06:40:59.813Z,15.20
2022-10-12T06:43:26.748Z,15.50
2022-10-12T06:45:54.152Z,15.60
2022-10-12T06:48:21.034Z,15.70
2022-10-12T06:50:48.315Z,15.70
2022-10-12T06:53:15.317Z,15.80
2022-10-12T06:55:42.292Z,15.90
2022-10-12T06:58:09.273Z,16.10
2022-10-12T07:00:36.584Z,16.10
2022-10-12T07:03:04.002Z,16.10
2022-10-12T07:05:31.380Z,16.00
2022-10-12T07:07:58.405Z,15.90
2022-10-12T07:10:25.549Z,15.70
2022-10-12T07:12:52.539Z,15.80
2022-10-12T07:15:19.527Z,16.00
2022-10-12T07:17:46.494Z,16.10
2022-10-12T07:20:13.440Z,16.00
2022-10-12T07:22:40.443Z,16.00
2022-10-12T07:25:07.777Z,16.30
2022-10-12T07:27:34.654Z,16.30
2022-10-12T07:30:01.985Z,16.20
2022-10-12T07:32:28.866Z,16.60
2022-10-12T07:34:55.753Z,16.80
2022-10-12T07:37:22.710Z,17.20
2022-10-12T07:39:49.911Z,16.90
2022-10-12T07:42:19.248Z,16.70
2022-10-12T07:44:46.689Z,16.70
2022-10-12T07:47:13.643Z,16.90
2022-10-12T07:49:40.518Z,17.00
2022-10-12T07:52:07.491Z,17.30
2022-10-12T07:54:34.399Z,17.70
2022-10-12T07:57:01.387Z,18.10
2022-10-12T07:59:28.446Z,18.50
2022-10-12T08:01:55.443Z,18.70
2022-10-12T08:04:22.366Z,19.00
2022-10-12T08:06:49.294Z,19.20
2022-10-12T08:09:16.224Z,19.30
2022-10-12T08:11:43.300Z,19.20
2022-10-12T08:14:17.957Z,19.50
2022-10-12T08:16:45.583Z,19.10
2022-10-12T08:19:12.565Z,19.30
2022-10-12T08:21:39.868Z,19.20
2022-10-12T08:24:07.137Z,19.00
2022-10-12T08:26:34.063Z,19.10
2022-10-12T08:29:03.212Z,19.30
2022-10-12T08:31:30.372Z,19.40
2022-10-12T08:33:58.478Z,19.50
2022-10-12T08:36:27.557Z,19.70
2022-10-12T08:38:55.650Z,19.70
2022-10-12T08:41:53.197Z,19.50
2022-10-12T08:44:38.712Z,19.40
2022-10-12T08:47:16.866Z,19.50
2022-10-12T08:49:49.733Z,19.70
2022-10-12T08:52:41.632Z,19.80
2022-10-12T08:55:25.169Z,19.80
2022-10-12T08:57:52.154Z,19.80
2022-10-12T09:00:19.559Z,19.70
2022-10-12T09:03:29.652Z,19.90
2022-10-12T09:06:15.799Z,20.00
2022-10-12T09:09:03.147Z,19.90
2022-10-12T09:11:36.124Z,19.90
2022-10-12T09:14:06.539Z,19.90
2022-10-12T09:16:40.409Z,20.10
2022-10-12T09:19:21.421Z,19.90
2022-10-12T09:21:49.992Z,19.90
2022-10-12T09:24:39.357Z,20.00
2022-10-12T09:27:20.275Z,20.00
2022-10-12T09:29:55.245Z,20.10
2022-10-12T09:32:40.004Z,20.30
2022-10-12T09:35:08.334Z,20.30
2022-10-12T09:37:36.440Z,20.40
2022-10-12T09:40:03.695Z,20.30
2022-10-12T09:42:31.695Z,20.40
2022-10-12T09:45:02.815Z,20.30
2022-10-12T09:47:33.966Z,20.30
2022-10-12T09:50:06.226Z,20.20
2022-10-12T09:52:36.273Z,20.30
2022-10-12T09:55:11.394Z,20.60
2022-10-12T09:57:41.705Z,20.40
2022-10-12T10:00:29.352Z,20.70
2022-10-12T10:02:57.166Z,20.90
2022-10-12T10:05:31.511Z,21.30
2022-10-12T10:08:15.336Z,21.20
2022-10-12T10:10:56.044Z,21.00
2022-10-12T10:13:31.813Z,20.70
2022-10-12T10:16:10.269Z,20.40
2022-10-12T10:18:48.647Z,20.70
2022-10-12T10:21:29.664Z,21.00
2022-10-12T10:24:02.576Z,21.30
2022-10-12T10:26:51.181Z,21.80
2022-10-12T10:29:37.992Z,22.00
2022-10-12T10:32:37.336Z,21.90
2022-10-12T10:35:20.354Z,21.80
2022-10-12T10:37:55.776Z,21.20
2022-10-12T10:40:31.039Z,21.40
2022-10-12T10:43:05.910Z,21.60
2022-10-12T10:46:04.766Z,21.60
2022-10-12T10:48:53.448Z,22.00
2022-10-12T10:51:20.644Z,21.90
2022-10-12T10:53:49.837Z,22.00
2022-10-12T10:56:31.219Z,22.20
2022-10-12T10:59:09.819Z,22.10
2022-10-12T11:01:43.386Z,21.60
2022-10-12T11:04:17.675Z,21.70
2022-10-12T11:07:12.788Z,21.60
2022-10-12T11:09:45.983Z,21.40
2022-10-12T11:12:21.468Z,21.30
2022-10-12T11:14:57.533Z,20.90
2022-10-12T11:17:30.748Z,21.10
2022-10-12T11:20:21.383Z,21.10
2022-10-12T11:22:58.038Z,20.90
2022-10-12T11:25:49.188Z,20.80
2022-10-12T11:28:17.218Z,20.60
2022-10-12T11:30:51.123Z,20.30
2022-10-12T11:33:40.597Z,20.30
2022-10-12T11:36:11.317Z,20.30
2022-10-12T11:39:07.871Z,20.20
2022-10-12T11:41:44.964Z,20.20
2022-10-12T11:44:39.034Z,20.40
2022-10-12T11:47:16.554Z,20.50
2022-10-12T11:49:46.426Z,20.50
2022-10-12T11:52:13.555Z,20.20
2022-10-12T11:54:51.723Z,20.20
2022-10-12T11:57:32.908Z,20.00
2022-10-12T12:00:07.510Z,20.10
2022-10-12T12:02:41.391Z,20.20
2022-10-12T12:05:16.920Z,20.10
2022-10-12T12:07:56.841Z,20.00
2022-10-12T12:10:27.862Z,20.30
2022-10-12T12:13:18.283Z,20.20
2022-10-12T12:15:49.732Z,20.40
2022-10-12T12:18:24.820Z,20.50
2022-10-12T12:21:10.511Z,20.40
2022-10-12T12:23:50.287Z,20.20
2022-10-12T12:26:19.365Z,20.10
2022-10-12T12:28:51.550Z,20.00
2022-10-12T12:31:24.602Z,19.80
2022-10-12T12:34:06.314Z,19.80
2022-10-12T12:36:37.041Z,19.80
2022-10-12T12:39:07.011Z,19.80
2022-10-12T12:41:56.392Z,19.70
2022-10-12T12:44:46.415Z,19.70
2022-10-12T12:50:02.677Z,19.80
2022-10-12T12:52:39.891Z,19.80
2022-10-12T12:55:40.994Z,19.70
2022-10-12T12:58:19.099Z,19.70
2022-10-12T13:01:04.233Z,19.60
2022-10-12T13:03:43.295Z,19.50
2022-10-12T13:06:40.924Z,19.50
2022-10-12T13:09:40.774Z,19.60
2022-10-12T13:12:14.081Z,19.60
2022-10-12T13:15:19.062Z,19.70
2022-10-12T13:18:28.382Z,19.70
2022-10-12T13:21:01.222Z,19.70
2022-10-12T13:23:28.823Z,19.70
2022-10-12T13:26:06.586Z,19.80
2022-10-12T13:28:39.815Z,19.70
2022-10-12T13:31:31.152Z,19.70
2022-10-12T13:33:57.975Z,19.70
2022-10-12T13:36:29.160Z,19.70
2022-10-12T13:39:07.453Z,19.70
2022-10-12T13:41:35.520Z,19.60
2022-10-12T13:44:06.001Z,19.60
2022-10-12T13:46:42.600Z,19.60
2022-10-12T13:49:26.521Z,19.40
2022-10-12T13:51:57.768Z,19.40
2022-10-12T13:54:28.453Z,19.40
2022-10-12T13:57:05.127Z,19.40
2022-10-12T13:59:38.075Z,19.30
2022-10-12T14:02:23.120Z,19.30
2022-10-12T14:04:54.858Z,19.20
2022-10-12T14:07:31.821Z,19.20
2022-10-12T14:10:06.042Z,19.10
2022-10-12T14:12:36.413Z,19.10
2022-10-12T14:15:05.443Z,19.10
2022-10-12T14:17:32.526Z,19.10
2022-10-12T14:20:39.021Z,19.10
2022-10-12T14:23:21.460Z,19.10
2022-10-12T14:25:57.193Z,19.20
2022-10-12T14:28:35.583Z,19.30
2022-10-12T14:31:02.958Z,19.30
2022-10-12T14:33:31.407Z,19.20
2022-10-12T14:36:25.910Z,19.10
2022-10-12T14:38:53.696Z,19.10
2022-10-12T14:41:43.353Z,19.20
2022-10-12T14:44:11.114Z,19.20
2022-10-12T14:47:07.308Z,19.30
2022-10-12T14:49:41.542Z,19.20
2022-10-12T14:52:36.359Z,19.20
2022-10-12T14:55:04.529Z,19.20
2022-10-12T14:57:32.654Z,19.10
2022-10-12T14:59:59.831Z,19.10
2022-10-12T15:02:29.587Z,19.00
2022-10-12T15:04:57.227Z,19.00
2022-10-12T15:07:30.971Z,19.00
2022-10-12T15:09:58.194Z,19.00
2022-10-12T15:12:26.774Z,18.80
2022-10-12T15:14:59.917Z,18.80
2022-10-12T15:17:27.210Z,18.80
2022-10-12T15:19:54.484Z,18.70
2022-10-12T15:22:24.517Z,18.70
2022-10-12T15:24:53.499Z,18.70
2022-10-12T15:27:20.634Z,18.60
2022-10-12T15:29:48.329Z,18.60
2022-10-12T15:32:17.787Z,18.60
2022-10-12T15:34:45.377Z,18.50
2022-10-12T15:37:12.895Z,18.50
2022-10-12T15:39:40.061Z,18.40
2022-10-12T15:42:07.196Z,18.40
2022-10-12T15:44:41.143Z,18.40
2022-10-12T15:47:10.697Z,18.40
2022-10-12T15:49:38.209Z,18.30
2022-10-12T15:52:10.647Z,18.30
2022-10-12T15:54:38.114Z,18.30
2022-10-12T15:57:07.119Z,18.20
2022-10-12T15:59:34.246Z,18.20
2022-10-12T16:02:01.416Z,18.10
2022-10-12T16:04:28.358Z,18.10
2022-10-12T16:06:55.490Z,18.00
2022-10-12T16:09:22.934Z,18.00
2022-10-12T16:11:50.276Z,18.00
2022-10-12T16:14:17.427Z,18.00
2022-10-12T16:16:44.373Z,17.90
2022-10-12T16:19:11.370Z,17.80
2022-10-12T16:21:38.430Z,17.80
2022-10-12T16:24:05.752Z,17.70
2022-10-12T16:26:32.660Z,17.60
2022-10-12T16:29:00.232Z,17.60
2022-10-12T16:31:27.190Z,17.50
2022-10-12T16:33:54.371Z,17.40
2022-10-12T16:36:21.426Z,17.40
2022-10-12T16:38:48.727Z,17.30
2022-10-12T16:41:17.000Z,17.30
2022-10-12T16:43:44.496Z,17.20
2022-10-12T16:46:11.481Z,17.20
2022-10-12T16:48:38.750Z,17.20
2022-10-12T16:51:10.095Z,17.20
2022-10-12T16:53:37.424Z,17.10
2022-10-12T16:56:05.197Z,17.10
2022-10-12T16:58:32.299Z,17.00
2022-10-12T17:00:59.297Z,17.00
2022-10-12T17:03:26.304Z,17.00
2022-10-12T17:06:00.502Z,16.90
2022-10-12T17:08:27.487Z,16.90
2022-10-12T17:10:55.408Z,16.90
2022-10-12T17:13:22.371Z,16.90
2022-10-12T17:15:49.305Z,16.80
2022-10-12T17:18:16.278Z,16.80
2022-10-12T17:20:43.212Z,16.80
2022-10-12T17:23:10.081Z,16.80
2022-10-12T17:25:36.967Z,16.80
2022-10-12T17:28:04.449Z,16.70
2022-10-12T17:30:31.536Z,16.70
2022-10-12T17:32:58.485Z,16.60
2022-10-12T17:35:25.405Z,16.60
2022-10-12T17:37:52.302Z,16.60
2022-10-12T17:40:19.518Z,16.60
2022-10-12T17:42:46.641Z,16.60
2022-10-12T17:45:13.840Z,16.50
2022-10-12T17:47:41.074Z,16.50
2022-10-12T17:50:08.576Z,16.50
2022-10-12T17:52:39.634Z,16.50
2022-10-12T17:55:09.422Z,16.40
2022-10-12T17:57:42.294Z,16.40
2022-10-12T18:00:09.969Z,16.40
2022-10-12T18:02:36.875Z,16.30
2022-10-12T18:05:04.305Z,16.30
2022-10-12T18:07:31.523Z,16.30
2022-10-12T18:12:30.476Z,16.20
2022-10-12T18:14:57.754Z,16.20
2022-10-12T18:17:25.583Z,16.20
2022-10-12T18:19:52.855Z,16.20
2022-10-12T18:22:20.156Z,16.10
2022-10-12T18:24:48.991Z,16.10
2022-10-12T18:27:16.036Z,16.10
2022-10-12T18:29:43.228Z,16.00
2022-10-12T18:32:10.367Z,16.00
2022-10-12T18:34:40.770Z,16.00
2022-10-12T18:37:08.143Z,15.90
2022-10-12T18:39:35.120Z,15.90
2022-10-12T18:42:02.050Z,15.90
2022-10-12T18:44:28.970Z,15.90
2022-10-12T18:46:55.933Z,15.90
2022-10-12T18:49:23.414Z,15.90
2022-10-12T18:51:52.272Z,15.90
2022-10-12T18:54:19.451Z,15.80
2022-10-12T18:56:46.493Z,15.70
2022-10-12T18:59:17.528Z,15.70
2022-10-12T19:01:45.635Z,15.70
2022-10-12T19:04:13.348Z,15.70
2022-10-12T19:06:42.794Z,15.60
2022-10-12T19:09:13.309Z,15.60
2022-10-12T19:11:40.663Z,15.60
2022-10-12T19:14:10.726Z,15.50
2022-10-12T19:16:37.644Z,15.50
2022-10-12T19:19:14.817Z,15.50
2022-10-12T19:21:45.275Z,15.40
2022-10-12T19:24:14.278Z,15.40
2022-10-12T19:26:42.500Z,15.40
2022-10-12T19:29:09.426Z,15.40
2022-10-12T19:31:40.214Z,15.40
2022-10-12T19:34:09.582Z,15.40
2022-10-12T19:36:37.736Z,15.40
2022-10-12T19:39:08.628Z,15.30
2022-10-12T19:41:36.054Z,15.30
2022-10-12T19:44:03.970Z,15.30
2022-10-12T19:46:31.339Z,15.20
2022-10-12T19:48:59.563Z,15.20
2022-10-12T19:51:29.042Z,15.20
2022-10-12T19:53:57.948Z,15.20
2022-10-12T19:56:27.986Z,15.20
2022-10-12T19:58:57.236Z,15.20
2022-10-12T20:01:30.521Z,15.10
2022-10-12T20:03:57.505Z,15.10
2022-10-12T20:06:28.726Z,15.10
2022-10-12T20:08:57.941Z,15.10
2022-10-12T20:11:25.186Z,15.10
2022-10-12T20:13:52.585Z,15.10
2022-10-12T20:16:20.494Z,15.00
2022-10-12T20:18:47.539Z,15.10
2022-10-12T20:21:19.281Z,15.10
2022-10-12T20:23:47.324Z,15.00
2022-10-12T20:26:19.335Z,15.00
2022-10-12T20:28:49.650Z,15.00
2022-10-12T20:31:18.735Z,15.00
2022-10-12T20:33:49.371Z,15.00
2022-10-12T20:36:23.066Z,15.00
2022-10-12T20:38:50.323Z,15.00
2022-10-12T20:41:17.909Z,14.90
2022-10-12T20:43:45.373Z,14.90
2022-10-12T20:46:14.759Z,14.90
2022-10-12T20:48:44.540Z,15.00
2022-10-12T20:51:28.845Z,15.00
2022-10-12T20:53:59.165Z,15.00
2022-10-12T20:56:27.666Z,14.90
2022-10-12T20:58:57.748Z,14.90
2022-10-12T21:01:26.156Z,14.90
2022-10-12T21:03:54.248Z,15.00
2022-10-12T21:06:23.527Z,15.00
2022-10-12T21:08:52.285Z,15.10
2022-10-12T21:11:19.268Z,15.00
2022-10-12T21:13:46.948Z,15.00
2022-10-12T21:16:14.649Z,14.90
2022-10-12T21:18:42.827Z,14.90
2022-10-12T21:21:18.859Z,14.90
2022-10-12T21:23:58.411Z,14.90
2022-10-12T21:26:27.750Z,14.90
2022-10-12T21:28:54.983Z,14.80
2022-10-12T21:31:22.600Z,14.80
2022-10-12T21:33:49.547Z,14.80
2022-10-12T21:36:22.171Z,14.80
2022-10-12T21:38:50.388Z,14.80
2022-10-12T21:41:20.897Z,14.80
2022-10-12T21:43:49.222Z,14.70
2022-10-12T21:46:18.774Z,14.70
2022-10-12T21:48:46.300Z,14.70
2022-10-12T21:51:13.679Z,14.60
2022-10-12T21:53:41.288Z,14.50
2022-10-12T21:56:29.548Z,14.50
2022-10-12T21:58:58.153Z,14.40
2022-10-12T22:01:34.826Z,14.40
2022-10-12T22:04:04.435Z,14.30
2022-10-12T22:06:32.565Z,14.20
2022-10-12T22:09:05.075Z,14.20
2022-10-12T22:11:33.422Z,14.20
2022-10-12T22:14:03.132Z,14.20
2022-10-12T22:16:30.427Z,14.10
2022-10-12T22:19:02.358Z,14.10
2022-10-12T22:21:30.723Z,14.10
2022-10-12T22:23:58.480Z,14.00
2022-10-12T22:26:25.526Z,14.00
2022-10-12T22:28:52.464Z,14.00
2022-10-12T22:31:21.067Z,14.00
2022-10-12T22:33:48.096Z,14.00
2022-10-12T22:36:15.325Z,14.00
2022-10-12T22:38:43.158Z,13.90
2022-10-12T22:41:15.846Z,14.00
2022-10-12T22:43:42.806Z,13.90
2022-10-12T22:46:10.215Z,13.90
2022-10-12T22:48:37.746Z,13.90
2022-10-12T22:51:06.477Z,13.90
2022-10-12T22:53:33.782Z,13.90
2022-10-12T22:56:06.684Z,13.90
2022-10-12T22:58:33.632Z,13.80
2022-10-12T23:01:06.553Z,13.80
2022-10-12T23:03:34.415Z,13.70
2022-10-12T23:06:01.544Z,13.70
2022-10-12T23:08:29.201Z,13.70
2022-10-12T23:11:01.656Z,13.70
2022-10-12T23:13:28.551Z,13.60
2022-10-12T23:15:55.434Z,13.60
2022-10-12T23:18:22.372Z,13.60
2022-10-12T23:20:49.271Z,13.60
2022-10-12T23:23:16.163Z,13.50
2022-10-12T23:25:43.067Z,13.50
2022-10-12T23:28:09.961Z,13.50
2022-10-12T23:30:38.359Z,13.50
2022-10-12T23:33:05.270Z,13.50
2022-10-12T23:35:32.415Z,13.40
2022-10-12T23:37:59.292Z,13.40
2022-10-12T23:40:26.201Z,13.30
2022-10-12T23:42:53.062Z,13.30
2022-10-12T23:45:19.947Z,13.30
2022-10-12T23:47:46.871Z,13.30
2022-10-12T23:50:13.723Z,13.30
2022-10-12T23:52:40.583Z,13.30
2022-10-12T23:55:08.018Z,13.30
2022-10-12T23:57:46.838Z,13.30
